10°C Temp
7°C Dewpoint
82% Humidity
Temperature
11 KM/H
7 MPH
6 KTS
260°
Due West

Wind Speed
Mostly Cloudy
Conditions
Pressure 1020.92 (hPa) - 30.15 (in)
Visibility 6.2 (mi) - 10.0 (km)

Current Conditions
EKCH
Location 55(km)
Metar :EKCH 230320Z AUTO 26006KT 9999 BKN028/// 10/07 Q1021 NOSIG
Wed 23rd October 05:20 am

Airport
  Metar Aviation API Data Provided by https://www.checkwx.com/ PHP scripts by weather34.com ©2019